Список аэропортов
Фактическая погода:

23 апреля, 12:37
Температура: +6°C (+3.1*)
Ветер: сев.-западный 4 м/с
Давление: *754 мм
разорв. обл.
кучево-дождевые 480 м
Время (МСК)Темп. СВетерВлажностьДавлениеОблачностьОсадки
09:00+3З, 6 м/с66%1006 гПаясно
10:00+5З, 6 м/с59%1006 гПамалооблачно
11:00+6З, 6 м/с55%1006 гПамалооблачно
12:00+6З, 6 м/с52%1006 гПаоблачно
13:00+7З, 6 м/с49%1006 гПамалооблачно
14:00+8З, 6 м/с46%1006 гПамалооблачно
15:00+8З, 6 м/с47%1006 гПас прояснениями
16:00+8З, 6 м/с47%1006 гПаоблачно
17:00+8СЗ, 6 м/с45%1006 гПамалооблачно
18:00+8СЗ, 6 м/с41%1007 гПамалооблачно
19:00+7СЗ, 6 м/с40%1007 гПаясно
20:00+6СЗ, 4 м/с41%1008 гПаясно
21:00+4СЗ, 2 м/с51%1009 гПаясно
22:00+3З, 2 м/с60%1009 гПаясно
23:00+1З, 2 м/с68%1010 гПаясно
24 апреля
00:00+1З, 2 м/с75%1010 гПаясно
01:000З, 2 м/с79%1010 гПаясно
02:00-0З, 2 м/с82%1011 гПаясно
03:00-1З, 2 м/с86%1011 гПаясно
04:00-1З, 2 м/с88%1010 гПаясно
05:00-1З, 2 м/с91%1011 гПаясно
06:00-1З, 2 м/с93%1011 гПаясно
07:00-1З, 2 м/с94%1011 гПаясно
08:000З, 1 м/с90%1011 гПаясно
09:00+4З, 1 м/с72%1011 гПаясно
10:00+6ЮЗ, 2 м/с59%1011 гПамалооблачно
11:00+7З, 3 м/с53%1011 гПас прояснениямисл. дождь
12:00+8З, 3 м/с45%1011 гПас прояснениямисл. дождь
13:00+9З, 4 м/с38%1011 гПамалооблачно
14:00+10З, 4 м/с33%1011 гПамалооблачно
15:00+10З, 4 м/с32%1011 гПамалооблачно
16:00+10З, 4 м/с30%1011 гПамалооблачно
17:00+10З, 3 м/с29%1011 гПаясно
18:00+10З, 3 м/с29%1011 гПамалооблачно
19:00+9З, 4 м/с30%1011 гПаоблачно
20:00+8З, 3 м/с31%1011 гПаоблачно
21:00+6ЮЗ, 2 м/с43%1012 гПас прояснениями
22:00+5ЮЗ, 2 м/с54%1012 гПаоблачно
23:00+5ЮЗ, 2 м/с63%1012 гПаоблачно
25 апреля
00:00+4ЮЗ, 2 м/с68%1012 гПаоблачно
01:00+3ЮЗ, 3 м/с75%1013 гПас прояснениями
02:00+2ЮЗ, 3 м/с86%1013 гПас прояснениями
03:00+2ЮЗ, 3 м/с96%1013 гПаоблачно
04:00+3ЮЗ, 3 м/с95%1013 гПаоблачно
05:00+2Ю, 2 м/с94%1013 гПаоблачно
06:00+2Ю, 2 м/с94%1013 гПаоблачно
07:00+2Ю, 3 м/с85%1013 гПаоблачно
08:00+4Ю, 3 м/с71%1012 гПаоблачно
09:00+7Ю, 4 м/с56%1012 гПаоблачно